Arock, Oregon
Current Conditions -  °F | °C
As of 11:55 AM on Monday 20 Oct 2014 (Local Time) from KEUL Reporting Station
Clear Clear  
Wind Chill: 18°   Ceiling: Unl
Heat Index: 18°   Visibility: 10mi
Dew Point:   Wind: 6mph
Humidity: 34%   Direction: 130°SE
Pressure: 29.88"   Gusts: NA
Location:  42.91°N, 117.53°W
Report Text: KEUL 201755Z AUTO 13005KT 10SM CLR 18/02 A2988 RMK AO1 10180 20030 57007
Loading
Personal Weather Stations






























Interactive Weather Map
Tropical Storm Tracking
New forecast layout! Learn more

10-Day Weather Forecast

Advertisements
Track Severe Weather on mobile